sensor_id;sensor_type;location;lat;lon;timestamp;temperature;humidity
48666;DHT22;34452;50.796;4.994;2023-08-06T00:00:38;15.00;99.90
48666;DHT22;34452;50.796;4.994;2023-08-06T00:03:04;15.00;99.90
48666;DHT22;34452;50.796;4.994;2023-08-06T00:05:30;15.00;99.90
48666;DHT22;34452;50.796;4.994;2023-08-06T00:07:56;14.90;99.90
48666;DHT22;34452;50.796;4.994;2023-08-06T00:10:21;15.00;99.90
48666;DHT22;34452;50.796;4.994;2023-08-06T00:12:47;15.00;99.90
48666;DHT22;34452;50.796;4.994;2023-08-06T00:15:14;15.00;99.90
48666;DHT22;34452;50.796;4.994;2023-08-06T00:17:40;15.00;99.90
48666;DHT22;34452;50.796;4.994;2023-08-06T00:20:06;15.00;99.90
48666;DHT22;34452;50.796;4.994;2023-08-06T00:22:35;14.90;99.90
48666;DHT22;34452;50.796;4.994;2023-08-06T00:25:01;14.90;99.90
48666;DHT22;34452;50.796;4.994;2023-08-06T00:27:27;14.90;99.90
48666;DHT22;34452;50.796;4.994;2023-08-06T00:29:52;15.00;99.90
48666;DHT22;34452;50.796;4.994;2023-08-06T00:32:18;15.00;99.90
48666;DHT22;34452;50.796;4.994;2023-08-06T00:34:44;15.00;99.90
48666;DHT22;34452;50.796;4.994;2023-08-06T00:37:10;15.00;99.90
48666;DHT22;34452;50.796;4.994;2023-08-06T00:39:35;15.00;99.90
48666;DHT22;34452;50.796;4.994;2023-08-06T00:42:01;15.00;99.90
48666;DHT22;34452;50.796;4.994;2023-08-06T00:44:27;15.00;99.90
48666;DHT22;34452;50.796;4.994;2023-08-06T00:46:53;15.00;99.90
48666;DHT22;34452;50.796;4.994;2023-08-06T00:49:19;15.10;99.90
48666;DHT22;34452;50.796;4.994;2023-08-06T00:51:45;15.00;99.90
48666;DHT22;34452;50.796;4.994;2023-08-06T00:54:11;15.00;99.90
48666;DHT22;34452;50.796;4.994;2023-08-06T00:56:37;15.00;99.90
48666;DHT22;34452;50.796;4.994;2023-08-06T00:59:04;15.00;99.90
48666;DHT22;34452;50.796;4.994;2023-08-06T01:01:30;15.10;99.90
48666;DHT22;34452;50.796;4.994;2023-08-06T01:03:56;15.00;99.90
48666;DHT22;34452;50.796;4.994;2023-08-06T01:12:18;15.10;99.90
48666;DHT22;34452;50.796;4.994;2023-08-06T01:17:44;15.10;99.90
48666;DHT22;34452;50.796;4.994;2023-08-06T01:20:11;15.10;99.90
48666;DHT22;34452;50.796;4.994;2023-08-06T01:22:36;15.10;99.90
48666;DHT22;34452;50.796;4.994;2023-08-06T01:25:03;15.10;99.90
48666;DHT22;34452;50.796;4.994;2023-08-06T01:27:33;15.10;99.90
48666;DHT22;34452;50.796;4.994;2023-08-06T01:30:20;15.10;99.90
48666;DHT22;34452;50.796;4.994;2023-08-06T01:32:50;15.10;99.90
48666;DHT22;34452;50.796;4.994;2023-08-06T01:35:19;15.10;99.90
48666;DHT22;34452;50.796;4.994;2023-08-06T01:37:46;15.10;99.90
48666;DHT22;34452;50.796;4.994;2023-08-06T01:40:13;15.10;99.90
48666;DHT22;34452;50.796;4.994;2023-08-06T01:42:39;15.20;99.90
48666;DHT22;34452;50.796;4.994;2023-08-06T01:45:07;15.20;99.90
48666;DHT22;34452;50.796;4.994;2023-08-06T01:47:33;15.30;99.90
48666;DHT22;34452;50.796;4.994;2023-08-06T01:49:59;15.30;99.90
48666;DHT22;34452;50.796;4.994;2023-08-06T01:52:25;15.30;99.90
48666;DHT22;34452;50.796;4.994;2023-08-06T01:54:50;15.30;99.90
48666;DHT22;34452;50.796;4.994;2023-08-06T01:57:16;15.30;99.90
48666;DHT22;34452;50.796;4.994;2023-08-06T01:59:42;15.30;99.90
48666;DHT22;34452;50.796;4.994;2023-08-06T02:02:07;15.30;99.90
48666;DHT22;34452;50.796;4.994;2023-08-06T02:04:33;15.30;99.90
48666;DHT22;34452;50.796;4.994;2023-08-06T02:06:59;15.30;99.90
48666;DHT22;34452;50.796;4.994;2023-08-06T02:09:25;15.30;99.90
48666;DHT22;34452;50.796;4.994;2023-08-06T02:11:51;15.40;99.90
48666;DHT22;34452;50.796;4.994;2023-08-06T02:14:17;15.40;99.90
48666;DHT22;34452;50.796;4.994;2023-08-06T02:16:42;15.40;99.90
48666;DHT22;34452;50.796;4.994;2023-08-06T02:19:08;15.50;99.90
48666;DHT22;34452;50.796;4.994;2023-08-06T02:21:34;15.50;99.90
48666;DHT22;34452;50.796;4.994;2023-08-06T02:24:00;15.50;99.90
48666;DHT22;34452;50.796;4.994;2023-08-06T02:26:26;15.50;99.90
48666;DHT22;34452;50.796;4.994;2023-08-06T02:28:52;15.50;99.90
48666;DHT22;34452;50.796;4.994;2023-08-06T02:31:17;15.50;99.90
48666;DHT22;34452;50.796;4.994;2023-08-06T02:33:43;15.50;99.90
48666;DHT22;34452;50.796;4.994;2023-08-06T02:36:09;15.60;99.90
48666;DHT22;34452;50.796;4.994;2023-08-06T02:38:35;15.60;99.90
48666;DHT22;34452;50.796;4.994;2023-08-06T02:41:16;15.50;99.90
48666;DHT22;34452;50.796;4.994;2023-08-06T02:43:41;15.50;99.90
48666;DHT22;34452;50.796;4.994;2023-08-06T02:46:07;15.50;99.90
48666;DHT22;34452;50.796;4.994;2023-08-06T02:48:33;15.50;99.90
48666;DHT22;34452;50.796;4.994;2023-08-06T02:50:59;15.50;99.90
48666;DHT22;34452;50.796;4.994;2023-08-06T02:53:25;15.50;99.90
48666;DHT22;34452;50.796;4.994;2023-08-06T02:55:51;15.50;99.90
48666;DHT22;34452;50.796;4.994;2023-08-06T02:58:17;15.50;99.90
48666;DHT22;34452;50.796;4.994;2023-08-06T03:01:04;15.50;99.90
48666;DHT22;34452;50.796;4.994;2023-08-06T03:03:31;15.60;99.90
48666;DHT22;34452;50.796;4.994;2023-08-06T03:05:57;15.60;99.90
48666;DHT22;34452;50.796;4.994;2023-08-06T03:08:22;15.60;99.90
48666;DHT22;34452;50.796;4.994;2023-08-06T03:10:50;15.60;99.90
48666;DHT22;34452;50.796;4.994;2023-08-06T03:13:17;15.60;99.90
48666;DHT22;34452;50.796;4.994;2023-08-06T03:15:43;15.50;99.90
48666;DHT22;34452;50.796;4.994;2023-08-06T03:18:09;15.50;99.90
48666;DHT22;34452;50.796;4.994;2023-08-06T03:20:34;15.60;99.90
48666;DHT22;34452;50.796;4.994;2023-08-06T03:23:00;15.60;99.90
48666;DHT22;34452;50.796;4.994;2023-08-06T03:25:26;15.60;99.90
48666;DHT22;34452;50.796;4.994;2023-08-06T03:27:51;15.60;99.90
48666;DHT22;34452;50.796;4.994;2023-08-06T03:30:17;15.60;99.90
48666;DHT22;34452;50.796;4.994;2023-08-06T03:32:43;15.60;99.90
48666;DHT22;34452;50.796;4.994;2023-08-06T03:35:09;15.60;99.90
48666;DHT22;34452;50.796;4.994;2023-08-06T03:37:34;15.60;99.90
48666;DHT22;34452;50.796;4.994;2023-08-06T03:40:00;15.60;99.90
48666;DHT22;34452;50.796;4.994;2023-08-06T03:42:26;15.60;99.90
48666;DHT22;34452;50.796;4.994;2023-08-06T03:44:52;15.60;99.90
48666;DHT22;34452;50.796;4.994;2023-08-06T03:47:17;15.60;99.90
48666;DHT22;34452;50.796;4.994;2023-08-06T03:49:43;15.60;99.90
48666;DHT22;34452;50.796;4.994;2023-08-06T03:52:09;15.50;99.90
48666;DHT22;34452;50.796;4.994;2023-08-06T03:54:34;15.50;99.90
48666;DHT22;34452;50.796;4.994;2023-08-06T03:57:00;15.50;99.90
48666;DHT22;34452;50.796;4.994;2023-08-06T03:59:26;15.50;99.90
48666;DHT22;34452;50.796;4.994;2023-08-06T04:01:52;15.50;99.90
48666;DHT22;34452;50.796;4.994;2023-08-06T04:04:17;15.50;99.90
48666;DHT22;34452;50.796;4.994;2023-08-06T04:06:43;15.50;99.90
48666;DHT22;34452;50.796;4.994;2023-08-06T04:09:09;15.50;99.90
48666;DHT22;34452;50.796;4.994;2023-08-06T04:11:35;15.50;99.90
48666;DHT22;34452;50.796;4.994;2023-08-06T04:14:00;15.50;99.90
48666;DHT22;34452;50.796;4.994;2023-08-06T04:16:26;15.50;99.90
48666;DHT22;34452;50.796;4.994;2023-08-06T04:18:52;15.50;99.90
48666;DHT22;34452;50.796;4.994;2023-08-06T04:21:19;15.50;99.90
48666;DHT22;34452;50.796;4.994;2023-08-06T04:23:45;15.40;99.90
48666;DHT22;34452;50.796;4.994;2023-08-06T04:26:10;15.40;99.90
48666;DHT22;34452;50.796;4.994;2023-08-06T04:28:36;15.40;99.90
48666;DHT22;34452;50.796;4.994;2023-08-06T04:31:02;15.40;99.90
48666;DHT22;34452;50.796;4.994;2023-08-06T04:33:27;15.40;99.90
48666;DHT22;34452;50.796;4.994;2023-08-06T04:35:55;15.30;99.90
48666;DHT22;34452;50.796;4.994;2023-08-06T04:38:24;15.30;99.90
48666;DHT22;34452;50.796;4.994;2023-08-06T04:40:50;15.20;99.90
48666;DHT22;34452;50.796;4.994;2023-08-06T04:43:16;15.30;99.90
48666;DHT22;34452;50.796;4.994;2023-08-06T04:46:15;15.30;99.90
48666;DHT22;34452;50.796;4.994;2023-08-06T04:48:41;15.30;99.90
48666;DHT22;34452;50.796;4.994;2023-08-06T04:51:06;15.30;99.90
48666;DHT22;34452;50.796;4.994;2023-08-06T04:53:32;15.40;99.90
48666;DHT22;34452;50.796;4.994;2023-08-06T04:55:58;15.40;99.90
48666;DHT22;34452;50.796;4.994;2023-08-06T04:58:23;15.40;99.90
48666;DHT22;34452;50.796;4.994;2023-08-06T05:00:49;15.40;99.90
48666;DHT22;34452;50.796;4.994;2023-08-06T05:03:15;15.50;99.90
48666;DHT22;34452;50.796;4.994;2023-08-06T05:05:41;15.50;99.90
48666;DHT22;34452;50.796;4.994;2023-08-06T05:08:07;15.50;99.90
48666;DHT22;34452;50.796;4.994;2023-08-06T05:10:32;15.50;99.90
48666;DHT22;34452;50.796;4.994;2023-08-06T05:12:58;15.60;99.90
48666;DHT22;34452;50.796;4.994;2023-08-06T05:15:24;15.60;99.90
48666;DHT22;34452;50.796;4.994;2023-08-06T05:17:51;15.60;99.90
48666;DHT22;34452;50.796;4.994;2023-08-06T05:20:16;15.60;99.90
48666;DHT22;34452;50.796;4.994;2023-08-06T05:22:43;15.60;99.90
48666;DHT22;34452;50.796;4.994;2023-08-06T05:25:09;15.50;99.90
48666;DHT22;34452;50.796;4.994;2023-08-06T05:27:34;15.40;99.90
48666;DHT22;34452;50.796;4.994;2023-08-06T05:30:00;15.00;99.90
48666;DHT22;34452;50.796;4.994;2023-08-06T05:32:26;14.80;99.90
48666;DHT22;34452;50.796;4.994;2023-08-06T05:34:52;14.60;99.90
48666;DHT22;34452;50.796;4.994;2023-08-06T05:37:18;14.60;99.90
48666;DHT22;34452;50.796;4.994;2023-08-06T05:39:43;14.50;99.90
48666;DHT22;34452;50.796;4.994;2023-08-06T05:42:09;14.40;99.90
48666;DHT22;34452;50.796;4.994;2023-08-06T05:44:35;14.40;99.90
48666;DHT22;34452;50.796;4.994;2023-08-06T05:47:00;14.30;99.90
48666;DHT22;34452;50.796;4.994;2023-08-06T05:49:26;14.30;99.90
48666;DHT22;34452;50.796;4.994;2023-08-06T05:51:52;14.30;99.90
48666;DHT22;34452;50.796;4.994;2023-08-06T05:54:19;14.20;99.90
48666;DHT22;34452;50.796;4.994;2023-08-06T05:56:45;14.20;99.90
48666;DHT22;34452;50.796;4.994;2023-08-06T05:59:10;14.20;99.90
48666;DHT22;34452;50.796;4.994;2023-08-06T06:01:36;14.20;99.90
48666;DHT22;34452;50.796;4.994;2023-08-06T06:04:02;14.20;99.90
48666;DHT22;34452;50.796;4.994;2023-08-06T06:06:28;14.20;99.90
48666;DHT22;34452;50.796;4.994;2023-08-06T06:08:53;14.30;99.90
48666;DHT22;34452;50.796;4.994;2023-08-06T06:11:19;14.30;99.90
48666;DHT22;34452;50.796;4.994;2023-08-06T06:13:57;14.30;99.90
48666;DHT22;34452;50.796;4.994;2023-08-06T06:16:24;14.30;99.90
48666;DHT22;34452;50.796;4.994;2023-08-06T06:18:50;14.30;99.90
48666;DHT22;34452;50.796;4.994;2023-08-06T06:21:16;14.30;99.90
48666;DHT22;34452;50.796;4.994;2023-08-06T06:23:41;14.30;99.90
48666;DHT22;34452;50.796;4.994;2023-08-06T06:26:07;14.30;99.90
48666;DHT22;34452;50.796;4.994;2023-08-06T06:28:33;14.30;99.90
48666;DHT22;34452;50.796;4.994;2023-08-06T06:31:00;14.30;99.90
48666;DHT22;34452;50.796;4.994;2023-08-06T06:33:27;14.30;99.90
48666;DHT22;34452;50.796;4.994;2023-08-06T06:35:52;14.30;99.90
48666;DHT22;34452;50.796;4.994;2023-08-06T06:38:18;14.30;99.90
48666;DHT22;34452;50.796;4.994;2023-08-06T06:40:52;14.30;99.90
48666;DHT22;34452;50.796;4.994;2023-08-06T06:43:18;14.30;99.90
48666;DHT22;34452;50.796;4.994;2023-08-06T06:45:44;14.30;99.90
48666;DHT22;34452;50.796;4.994;2023-08-06T06:48:09;14.40;99.90
48666;DHT22;34452;50.796;4.994;2023-08-06T06:50:36;14.40;99.90
48666;DHT22;34452;50.796;4.994;2023-08-06T06:53:02;14.50;99.90
48666;DHT22;34452;50.796;4.994;2023-08-06T06:55:27;14.50;99.90
48666;DHT22;34452;50.796;4.994;2023-08-06T06:57:53;14.50;99.90
48666;DHT22;34452;50.796;4.994;2023-08-06T07:00:19;14.60;99.90
48666;DHT22;34452;50.796;4.994;2023-08-06T07:02:44;14.60;99.90
48666;DHT22;34452;50.796;4.994;2023-08-06T07:05:10;14.60;99.90
48666;DHT22;34452;50.796;4.994;2023-08-06T07:07:36;14.60;99.90
48666;DHT22;34452;50.796;4.994;2023-08-06T07:10:03;14.60;99.90
48666;DHT22;34452;50.796;4.994;2023-08-06T07:12:28;14.60;99.90
48666;DHT22;34452;50.796;4.994;2023-08-06T07:14:54;14.60;99.90
48666;DHT22;34452;50.796;4.994;2023-08-06T07:17:20;14.60;99.90
48666;DHT22;34452;50.796;4.994;2023-08-06T07:19:46;14.60;99.90
48666;DHT22;34452;50.796;4.994;2023-08-06T07:22:12;14.60;99.90
48666;DHT22;34452;50.796;4.994;2023-08-06T07:24:37;14.60;99.90
48666;DHT22;34452;50.796;4.994;2023-08-06T07:27:03;14.50;99.90
48666;DHT22;34452;50.796;4.994;2023-08-06T07:29:29;14.50;99.90
48666;DHT22;34452;50.796;4.994;2023-08-06T07:31:55;14.50;99.90
48666;DHT22;34452;50.796;4.994;2023-08-06T07:34:21;14.50;99.90
48666;DHT22;34452;50.796;4.994;2023-08-06T07:36:46;14.50;99.90
48666;DHT22;34452;50.796;4.994;2023-08-06T07:39:12;14.60;99.90
48666;DHT22;34452;50.796;4.994;2023-08-06T07:41:38;14.50;99.90
48666;DHT22;34452;50.796;4.994;2023-08-06T07:44:04;14.50;99.90
48666;DHT22;34452;50.796;4.994;2023-08-06T07:46:30;14.60;99.90
48666;DHT22;34452;50.796;4.994;2023-08-06T07:48:56;14.60;99.90
48666;DHT22;34452;50.796;4.994;2023-08-06T07:51:21;14.60;99.90
48666;DHT22;34452;50.796;4.994;2023-08-06T07:53:47;14.60;99.90
48666;DHT22;34452;50.796;4.994;2023-08-06T07:56:13;14.60;99.90
48666;DHT22;34452;50.796;4.994;2023-08-06T07:58:38;14.60;99.90
48666;DHT22;34452;50.796;4.994;2023-08-06T08:01:06;14.70;99.90
48666;DHT22;34452;50.796;4.994;2023-08-06T08:03:32;14.70;99.90
48666;DHT22;34452;50.796;4.994;2023-08-06T08:05:58;14.70;99.90
48666;DHT22;34452;50.796;4.994;2023-08-06T08:08:24;14.70;99.90
48666;DHT22;34452;50.796;4.994;2023-08-06T08:10:50;14.70;99.90
48666;DHT22;34452;50.796;4.994;2023-08-06T08:13:16;14.80;99.90
48666;DHT22;34452;50.796;4.994;2023-08-06T08:15:41;14.80;99.90
48666;DHT22;34452;50.796;4.994;2023-08-06T08:18:07;14.80;99.90
48666;DHT22;34452;50.796;4.994;2023-08-06T08:20:33;14.90;99.90
48666;DHT22;34452;50.796;4.994;2023-08-06T08:23:01;14.90;99.90
48666;DHT22;34452;50.796;4.994;2023-08-06T08:25:27;14.90;99.90
48666;DHT22;34452;50.796;4.994;2023-08-06T08:27:54;14.80;99.90
48666;DHT22;34452;50.796;4.994;2023-08-06T08:30:20;14.90;99.90
48666;DHT22;34452;50.796;4.994;2023-08-06T08:32:47;14.90;99.90
48666;DHT22;34452;50.796;4.994;2023-08-06T08:35:12;14.90;99.90
48666;DHT22;34452;50.796;4.994;2023-08-06T08:37:39;15.00;99.90
48666;DHT22;34452;50.796;4.994;2023-08-06T08:40:06;15.00;99.90
48666;DHT22;34452;50.796;4.994;2023-08-06T08:42:32;15.00;99.90
48666;DHT22;34452;50.796;4.994;2023-08-06T08:44:58;15.00;99.90
48666;DHT22;34452;50.796;4.994;2023-08-06T08:47:24;15.20;99.90
48666;DHT22;34452;50.796;4.994;2023-08-06T08:49:53;15.30;99.90
48666;DHT22;34452;50.796;4.994;2023-08-06T08:52:20;15.20;99.90
48666;DHT22;34452;50.796;4.994;2023-08-06T08:54:47;15.20;99.90
48666;DHT22;34452;50.796;4.994;2023-08-06T08:57:17;15.40;99.90
48666;DHT22;34452;50.796;4.994;2023-08-06T08:59:43;15.50;99.90
48666;DHT22;34452;50.796;4.994;2023-08-06T09:02:11;15.50;99.90
48666;DHT22;34452;50.796;4.994;2023-08-06T09:04:39;15.50;99.90
48666;DHT22;34452;50.796;4.994;2023-08-06T09:07:05;15.60;99.90
48666;DHT22;34452;50.796;4.994;2023-08-06T09:09:34;15.50;99.90
48666;DHT22;34452;50.796;4.994;2023-08-06T09:12:19;15.40;99.90
48666;DHT22;34452;50.796;4.994;2023-08-06T09:14:44;15.30;99.90
48666;DHT22;34452;50.796;4.994;2023-08-06T09:17:10;15.20;99.90
48666;DHT22;34452;50.796;4.994;2023-08-06T09:19:36;15.20;99.90
48666;DHT22;34452;50.796;4.994;2023-08-06T09:22:03;15.20;99.90
48666;DHT22;34452;50.796;4.994;2023-08-06T09:24:29;15.30;99.90
48666;DHT22;34452;50.796;4.994;2023-08-06T09:26:54;15.30;99.90
48666;DHT22;34452;50.796;4.994;2023-08-06T09:29:20;15.30;99.90
48666;DHT22;34452;50.796;4.994;2023-08-06T09:31:48;15.40;99.90
48666;DHT22;34452;50.796;4.994;2023-08-06T09:34:26;15.40;99.90
48666;DHT22;34452;50.796;4.994;2023-08-06T09:36:53;15.40;99.90
48666;DHT22;34452;50.796;4.994;2023-08-06T09:39:21;15.20;99.90
48666;DHT22;34452;50.796;4.994;2023-08-06T09:41:48;15.30;99.90
48666;DHT22;34452;50.796;4.994;2023-08-06T09:44:16;15.30;99.90
48666;DHT22;34452;50.796;4.994;2023-08-06T09:46:46;15.30;99.90
48666;DHT22;34452;50.796;4.994;2023-08-06T09:49:12;15.20;99.90
48666;DHT22;34452;50.796;4.994;2023-08-06T09:51:38;15.10;99.90
48666;DHT22;34452;50.796;4.994;2023-08-06T09:54:06;15.00;99.90
48666;DHT22;34452;50.796;4.994;2023-08-06T09:56:34;15.00;99.90
48666;DHT22;34452;50.796;4.994;2023-08-06T09:59:04;15.10;99.90
48666;DHT22;34452;50.796;4.994;2023-08-06T10:01:34;15.10;99.90
48666;DHT22;34452;50.796;4.994;2023-08-06T10:06:47;15.00;99.90
48666;DHT22;34452;50.796;4.994;2023-08-06T10:09:14;15.10;99.90
48666;DHT22;34452;50.796;4.994;2023-08-06T10:11:40;15.10;99.90
48666;DHT22;34452;50.796;4.994;2023-08-06T10:14:21;15.00;99.90
48666;DHT22;34452;50.796;4.994;2023-08-06T10:16:48;15.00;99.90
48666;DHT22;34452;50.796;4.994;2023-08-06T10:19:14;14.90;99.90
48666;DHT22;34452;50.796;4.994;2023-08-06T10:21:41;14.90;99.90
48666;DHT22;34452;50.796;4.994;2023-08-06T10:24:07;14.90;99.90
48666;DHT22;34452;50.796;4.994;2023-08-06T10:26:45;14.80;99.90
48666;DHT22;34452;50.796;4.994;2023-08-06T10:32:15;14.80;99.90
48666;DHT22;34452;50.796;4.994;2023-08-06T10:35:02;14.80;99.90
48666;DHT22;34452;50.796;4.994;2023-08-06T10:37:38;14.80;99.90
48666;DHT22;34452;50.796;4.994;2023-08-06T10:40:06;14.80;99.90
48666;DHT22;34452;50.796;4.994;2023-08-06T10:42:33;14.70;99.90
48666;DHT22;34452;50.796;4.994;2023-08-06T10:45:12;14.70;99.90
48666;DHT22;34452;50.796;4.994;2023-08-06T10:47:39;14.70;99.90
48666;DHT22;34452;50.796;4.994;2023-08-06T10:50:07;14.60;99.90
48666;DHT22;34452;50.796;4.994;2023-08-06T10:52:34;14.60;99.90
48666;DHT22;34452;50.796;4.994;2023-08-06T10:55:00;14.50;99.90
48666;DHT22;34452;50.796;4.994;2023-08-06T10:57:26;14.50;99.90
48666;DHT22;34452;50.796;4.994;2023-08-06T10:59:51;14.50;99.90
48666;DHT22;34452;50.796;4.994;2023-08-06T11:02:17;14.40;99.90
48666;DHT22;34452;50.796;4.994;2023-08-06T11:04:43;14.30;99.90
48666;DHT22;34452;50.796;4.994;2023-08-06T11:07:09;14.40;99.90
48666;DHT22;34452;50.796;4.994;2023-08-06T11:09:35;14.30;99.90
48666;DHT22;34452;50.796;4.994;2023-08-06T11:12:01;14.30;99.90
48666;DHT22;34452;50.796;4.994;2023-08-06T11:14:26;14.30;99.90
48666;DHT22;34452;50.796;4.994;2023-08-06T11:16:52;14.30;99.90
48666;DHT22;34452;50.796;4.994;2023-08-06T11:19:18;14.30;99.90
48666;DHT22;34452;50.796;4.994;2023-08-06T11:21:44;14.30;99.90
48666;DHT22;34452;50.796;4.994;2023-08-06T11:24:10;14.40;99.90
48666;DHT22;34452;50.796;4.994;2023-08-06T11:26:36;14.40;99.90
48666;DHT22;34452;50.796;4.994;2023-08-06T11:29:03;14.50;99.90
48666;DHT22;34452;50.796;4.994;2023-08-06T11:31:29;14.50;99.90
48666;DHT22;34452;50.796;4.994;2023-08-06T11:33:55;14.50;99.90
48666;DHT22;34452;50.796;4.994;2023-08-06T11:36:34;14.60;99.90
48666;DHT22;34452;50.796;4.994;2023-08-06T11:39:02;14.60;99.90
48666;DHT22;34452;50.796;4.994;2023-08-06T11:41:29;14.50;99.90
48666;DHT22;34452;50.796;4.994;2023-08-06T11:43:55;14.40;99.90
48666;DHT22;34452;50.796;4.994;2023-08-06T11:46:21;14.40;99.90
48666;DHT22;34452;50.796;4.994;2023-08-06T11:49:05;14.40;99.90
48666;DHT22;34452;50.796;4.994;2023-08-06T11:51:32;14.40;99.90
48666;DHT22;34452;50.796;4.994;2023-08-06T11:53:59;14.50;99.90
48666;DHT22;34452;50.796;4.994;2023-08-06T11:56:24;14.50;99.90
48666;DHT22;34452;50.796;4.994;2023-08-06T11:58:51;14.60;99.90
48666;DHT22;34452;50.796;4.994;2023-08-06T12:01:18;14.60;99.90
48666;DHT22;34452;50.796;4.994;2023-08-06T12:03:43;14.70;99.90
48666;DHT22;34452;50.796;4.994;2023-08-06T12:06:09;14.70;99.90
48666;DHT22;34452;50.796;4.994;2023-08-06T12:08:35;14.70;99.90
48666;DHT22;34452;50.796;4.994;2023-08-06T12:11:01;14.70;99.90
48666;DHT22;34452;50.796;4.994;2023-08-06T12:13:26;14.70;99.90
48666;DHT22;34452;50.796;4.994;2023-08-06T12:15:54;14.70;99.90
48666;DHT22;34452;50.796;4.994;2023-08-06T12:18:20;14.60;99.90
48666;DHT22;34452;50.796;4.994;2023-08-06T12:20:45;14.60;99.90
48666;DHT22;34452;50.796;4.994;2023-08-06T12:23:11;14.40;99.90
48666;DHT22;34452;50.796;4.994;2023-08-06T12:25:41;14.40;99.90
48666;DHT22;34452;50.796;4.994;2023-08-06T12:28:07;14.30;99.90
48666;DHT22;34452;50.796;4.994;2023-08-06T12:30:34;14.40;99.90
48666;DHT22;34452;50.796;4.994;2023-08-06T12:32:59;14.50;99.90
48666;DHT22;34452;50.796;4.994;2023-08-06T12:35:25;14.60;99.90
48666;DHT22;34452;50.796;4.994;2023-08-06T12:37:51;14.70;99.90
48666;DHT22;34452;50.796;4.994;2023-08-06T12:40:20;14.80;99.90
48666;DHT22;34452;50.796;4.994;2023-08-06T12:42:46;14.80;99.90
48666;DHT22;34452;50.796;4.994;2023-08-06T12:45:12;14.90;99.90
48666;DHT22;34452;50.796;4.994;2023-08-06T12:47:37;15.00;99.90
48666;DHT22;34452;50.796;4.994;2023-08-06T12:50:03;15.00;99.90
48666;DHT22;34452;50.796;4.994;2023-08-06T12:52:29;14.90;99.90
48666;DHT22;34452;50.796;4.994;2023-08-06T12:54:55;15.00;99.90
48666;DHT22;34452;50.796;4.994;2023-08-06T12:57:21;15.00;99.90
48666;DHT22;34452;50.796;4.994;2023-08-06T12:59:46;15.00;99.90
48666;DHT22;34452;50.796;4.994;2023-08-06T13:02:13;15.00;99.90
48666;DHT22;34452;50.796;4.994;2023-08-06T13:04:39;14.90;99.90
48666;DHT22;34452;50.796;4.994;2023-08-06T13:07:05;15.00;99.90
48666;DHT22;34452;50.796;4.994;2023-08-06T13:09:32;15.00;99.90
48666;DHT22;34452;50.796;4.994;2023-08-06T13:11:58;15.00;99.90
48666;DHT22;34452;50.796;4.994;2023-08-06T13:14:25;15.00;99.90
48666;DHT22;34452;50.796;4.994;2023-08-06T13:16:51;14.90;99.90
48666;DHT22;34452;50.796;4.994;2023-08-06T13:19:17;14.90;99.90
48666;DHT22;34452;50.796;4.994;2023-08-06T13:22:02;14.80;99.90
48666;DHT22;34452;50.796;4.994;2023-08-06T13:24:29;14.90;99.90
48666;DHT22;34452;50.796;4.994;2023-08-06T13:26:55;14.90;99.90
48666;DHT22;34452;50.796;4.994;2023-08-06T13:29:21;14.90;99.90
48666;DHT22;34452;50.796;4.994;2023-08-06T13:31:46;14.80;99.90
48666;DHT22;34452;50.796;4.994;2023-08-06T13:34:12;14.90;99.90
48666;DHT22;34452;50.796;4.994;2023-08-06T13:36:38;14.80;99.90
48666;DHT22;34452;50.796;4.994;2023-08-06T13:39:04;14.80;99.90
48666;DHT22;34452;50.796;4.994;2023-08-06T13:41:31;14.70;99.90
48666;DHT22;34452;50.796;4.994;2023-08-06T13:43:57;14.70;99.90
48666;DHT22;34452;50.796;4.994;2023-08-06T13:46:22;14.70;99.90
48666;DHT22;34452;50.796;4.994;2023-08-06T13:48:48;14.70;99.90
48666;DHT22;34452;50.796;4.994;2023-08-06T13:51:33;14.70;99.90
48666;DHT22;34452;50.796;4.994;2023-08-06T13:54:01;14.90;99.90
48666;DHT22;34452;50.796;4.994;2023-08-06T13:56:27;14.90;99.90
48666;DHT22;34452;50.796;4.994;2023-08-06T13:58:52;14.90;99.90
48666;DHT22;34452;50.796;4.994;2023-08-06T14:01:18;14.90;99.90
48666;DHT22;34452;50.796;4.994;2023-08-06T14:03:45;14.80;99.90
48666;DHT22;34452;50.796;4.994;2023-08-06T14:06:10;14.60;99.90
48666;DHT22;34452;50.796;4.994;2023-08-06T14:08:36;14.60;99.90
48666;DHT22;34452;50.796;4.994;2023-08-06T14:11:02;14.50;99.90
48666;DHT22;34452;50.796;4.994;2023-08-06T14:13:28;14.50;99.90
48666;DHT22;34452;50.796;4.994;2023-08-06T14:15:53;14.40;99.90
48666;DHT22;34452;50.796;4.994;2023-08-06T14:18:19;14.30;99.90
48666;DHT22;34452;50.796;4.994;2023-08-06T14:20:45;14.20;99.90
48666;DHT22;34452;50.796;4.994;2023-08-06T14:23:11;14.10;99.90
48666;DHT22;34452;50.796;4.994;2023-08-06T14:25:37;14.10;99.90
48666;DHT22;34452;50.796;4.994;2023-08-06T14:28:03;14.10;99.90
48666;DHT22;34452;50.796;4.994;2023-08-06T14:30:29;14.00;99.90
48666;DHT22;34452;50.796;4.994;2023-08-06T14:32:55;13.90;99.90
48666;DHT22;34452;50.796;4.994;2023-08-06T14:35:21;13.80;99.90
48666;DHT22;34452;50.796;4.994;2023-08-06T14:37:47;13.80;99.90
48666;DHT22;34452;50.796;4.994;2023-08-06T14:40:13;13.70;99.90
48666;DHT22;34452;50.796;4.994;2023-08-06T14:42:39;13.70;99.90
48666;DHT22;34452;50.796;4.994;2023-08-06T14:45:05;13.70;99.90
48666;DHT22;34452;50.796;4.994;2023-08-06T14:47:31;13.70;99.90
48666;DHT22;34452;50.796;4.994;2023-08-06T14:49:57;13.70;99.90
48666;DHT22;34452;50.796;4.994;2023-08-06T14:52:22;13.80;99.90
48666;DHT22;34452;50.796;4.994;2023-08-06T14:54:48;13.80;99.90
48666;DHT22;34452;50.796;4.994;2023-08-06T14:57:17;13.80;99.90
48666;DHT22;34452;50.796;4.994;2023-08-06T14:59:43;13.80;99.90
48666;DHT22;34452;50.796;4.994;2023-08-06T15:02:09;13.90;99.90
48666;DHT22;34452;50.796;4.994;2023-08-06T15:04:34;13.90;99.90
48666;DHT22;34452;50.796;4.994;2023-08-06T15:07:00;13.90;99.90
48666;DHT22;34452;50.796;4.994;2023-08-06T15:09:26;13.90;99.90
48666;DHT22;34452;50.796;4.994;2023-08-06T15:11:51;14.00;99.90
48666;DHT22;34452;50.796;4.994;2023-08-06T15:14:17;14.00;99.90
48666;DHT22;34452;50.796;4.994;2023-08-06T15:16:45;14.10;99.90
48666;DHT22;34452;50.796;4.994;2023-08-06T15:19:11;14.10;99.90
48666;DHT22;34452;50.796;4.994;2023-08-06T15:21:37;14.00;99.90
48666;DHT22;34452;50.796;4.994;2023-08-06T15:24:03;14.10;99.90
48666;DHT22;34452;50.796;4.994;2023-08-06T15:26:29;14.10;99.90
48666;DHT22;34452;50.796;4.994;2023-08-06T15:28:54;14.10;99.90
48666;DHT22;34452;50.796;4.994;2023-08-06T15:31:22;14.10;99.90
48666;DHT22;34452;50.796;4.994;2023-08-06T15:33:48;14.10;99.90
48666;DHT22;34452;50.796;4.994;2023-08-06T15:36:14;14.10;99.90
48666;DHT22;34452;50.796;4.994;2023-08-06T15:38:39;14.10;99.90
48666;DHT22;34452;50.796;4.994;2023-08-06T15:41:05;14.10;99.90